createdAt,value
2023-05-17T00:01:08.663Z,97372.23
2023-05-17T00:03:35.026Z,97367.04
2023-05-17T00:06:01.397Z,97360.14
2023-05-17T00:08:27.721Z,97357.07
2023-05-17T00:10:54.164Z,97357.04
2023-05-17T00:13:20.626Z,97361.69
2023-05-17T00:15:47.098Z,97370.73
2023-05-17T00:18:13.519Z,97380.33
2023-05-17T00:20:39.988Z,97386.67
2023-05-17T00:23:06.305Z,97390.27
2023-05-17T00:25:32.634Z,97392.50
2023-05-17T00:27:58.992Z,97391.98
2023-05-17T00:30:25.441Z,97389.81
2023-05-17T00:32:52.066Z,97390.30
2023-05-17T00:35:18.941Z,97386.45
2023-05-17T00:37:45.284Z,97386.56
2023-05-17T00:40:12.202Z,97386.35
2023-05-17T00:42:38.566Z,97390.69
2023-05-17T00:45:05.192Z,97389.50
2023-05-17T00:47:31.726Z,97390.02
2023-05-17T00:49:58.347Z,97385.34
2023-05-17T00:52:24.752Z,97379.34
2023-05-17T00:54:51.509Z,97372.34
2023-05-17T00:57:17.973Z,97370.32
2023-05-17T00:59:44.541Z,97370.39
2023-05-17T01:02:31.441Z,97370.15
2023-05-17T01:05:38.865Z,97374.77
2023-05-17T01:08:48.854Z,97374.81
2023-05-17T01:12:22.645Z,97372.42
2023-05-17T01:15:48.318Z,97373.42
2023-05-17T01:19:00.084Z,97370.39
2023-05-17T01:22:29.936Z,97359.04
2023-05-17T01:25:59.525Z,97358.58
2023-05-17T01:29:26.390Z,97360.60
2023-05-17T01:32:33.648Z,97357.55
2023-05-17T01:35:44.495Z,97354.52
2023-05-17T01:38:52.440Z,97356.73
2023-05-17T01:42:28.543Z,97359.48
2023-05-17T01:45:55.993Z,97366.95
2023-05-17T01:49:09.504Z,97363.40
2023-05-17T01:52:24.297Z,97361.45
2023-05-17T01:55:42.895Z,97357.08
2023-05-17T01:58:50.384Z,97358.16
2023-05-17T02:01:58.359Z,97359.06
2023-05-17T02:05:06.271Z,97362.27
2023-05-17T02:08:30.506Z,97374.70
2023-05-17T02:11:57.517Z,97381.11
2023-05-17T02:15:11.683Z,97389.27
2023-05-17T02:18:35.084Z,97393.48
2023-05-17T02:21:47.449Z,97390.66
2023-05-17T02:25:03.302Z,97383.79
2023-05-17T02:28:30.380Z,97381.52
2023-05-17T02:31:37.345Z,97384.96
2023-05-17T02:35:02.371Z,97389.01
2023-05-17T02:38:17.954Z,97388.96
2023-05-17T02:41:26.980Z,97386.98
2023-05-17T02:44:36.432Z,97392.85
2023-05-17T02:47:47.726Z,97393.00
2023-05-17T02:50:58.548Z,97397.48
2023-05-17T02:54:25.395Z,97401.94
2023-05-17T02:57:33.086Z,97404.07
2023-05-17T03:00:43.134Z,97408.14
2023-05-17T03:03:50.385Z,97404.77
2023-05-17T03:06:59.581Z,97405.06
2023-05-17T03:10:14.321Z,97405.20
2023-05-17T03:13:21.426Z,97401.86
2023-05-17T03:16:34.585Z,97394.99
2023-05-17T03:19:47.449Z,97399.60
2023-05-17T03:23:02.820Z,97401.41
2023-05-17T03:26:31.291Z,97397.09
2023-05-17T03:29:59.510Z,97400.62
2023-05-17T03:33:06.524Z,97402.77
2023-05-17T03:36:15.306Z,97410.65
2023-05-17T03:39:42.391Z,97411.66
2023-05-17T03:42:57.958Z,97417.34
2023-05-17T03:46:05.013Z,97423.13
2023-05-17T03:49:12.462Z,97423.23
2023-05-17T03:52:24.456Z,97415.83
2023-05-17T03:55:38.114Z,97414.08
2023-05-17T03:58:45.272Z,97421.53
2023-05-17T04:01:52.293Z,97425.56
2023-05-17T04:04:59.465Z,97433.75
2023-05-17T04:08:06.361Z,97431.52
2023-05-17T04:11:15.069Z,97432.73
2023-05-17T04:14:22.046Z,97436.10
2023-05-17T04:17:33.919Z,97445.47
2023-05-17T04:20:41.029Z,97451.45
2023-05-17T04:23:50.358Z,97453.83
2023-05-17T04:26:59.812Z,97465.56
2023-05-17T04:30:25.826Z,97467.23
2023-05-17T04:33:35.118Z,97454.24
2023-05-17T04:36:43.254Z,97444.02
2023-05-17T04:39:50.217Z,97439.56
2023-05-17T04:42:57.438Z,97434.95
2023-05-17T04:46:11.129Z,97451.65
2023-05-17T04:49:22.180Z,97461.31
2023-05-17T04:52:34.756Z,97468.50
2023-05-17T04:55:45.140Z,97472.27
2023-05-17T04:58:53.001Z,97472.12
2023-05-17T05:02:17.246Z,97472.30
2023-05-17T05:05:29.873Z,97474.70
2023-05-17T05:08:45.715Z,97473.41
2023-05-17T05:12:12.890Z,97478.09
2023-05-17T05:15:24.736Z,97480.89
2023-05-17T05:18:31.751Z,97487.67
2023-05-17T05:21:38.679Z,97494.02
2023-05-17T05:24:45.613Z,97491.27
2023-05-17T05:28:08.761Z,97496.51
2023-05-17T05:31:16.305Z,97497.96
2023-05-17T05:34:32.854Z,97491.73
2023-05-17T05:38:01.700Z,97488.14
2023-05-17T05:41:13.232Z,97492.70
2023-05-17T05:44:42.378Z,97493.98
2023-05-17T05:48:08.619Z,97504.11
2023-05-17T05:51:32.393Z,97513.84
2023-05-17T05:54:45.499Z,97521.00
2023-05-17T05:58:32.405Z,97528.32
2023-05-17T06:01:59.379Z,97535.30
2023-05-17T06:05:06.605Z,97539.64
2023-05-17T06:08:32.724Z,97541.20
2023-05-17T06:11:43.696Z,97545.55
2023-05-17T06:14:51.678Z,97547.95
2023-05-17T06:18:00.669Z,97548.85
2023-05-17T06:21:08.208Z,97553.77
2023-05-17T06:24:23.446Z,97558.23
2023-05-17T06:27:50.545Z,97563.59
2023-05-17T06:31:06.443Z,97567.60
2023-05-17T06:34:33.463Z,97566.59
2023-05-17T06:37:40.482Z,97566.63
2023-05-17T06:40:47.416Z,97569.60
2023-05-17T06:43:54.429Z,97565.29
2023-05-17T06:47:12.610Z,97573.03
2023-05-17T06:50:29.099Z,97576.15
2023-05-17T06:53:36.283Z,97577.05
2023-05-17T06:57:04.818Z,97584.71
2023-05-17T07:00:12.443Z,97581.55
2023-05-17T07:03:47.340Z,97583.31
2023-05-17T07:07:02.348Z,97586.27
2023-05-17T07:10:10.142Z,97590.83
2023-05-17T07:13:19.350Z,97591.36
2023-05-17T07:16:36.306Z,97597.70
2023-05-17T07:19:43.448Z,97605.55
2023-05-17T07:23:30.958Z,97615.22
2023-05-17T07:26:39.148Z,97619.77
2023-05-17T07:30:09.174Z,97616.76
2023-05-17T07:33:27.028Z,97621.02
2023-05-17T07:36:34.187Z,97620.73
2023-05-17T07:39:41.188Z,97621.23
2023-05-17T07:42:48.204Z,97629.48
2023-05-17T07:45:55.270Z,97632.56
2023-05-17T07:49:04.405Z,97644.54
2023-05-17T07:52:32.725Z,97649.95
2023-05-17T07:56:00.057Z,97655.67
2023-05-17T07:59:09.308Z,97663.27
2023-05-17T08:02:40.636Z,97668.55
2023-05-17T08:05:50.871Z,97673.36
2023-05-17T08:09:06.133Z,97680.33
2023-05-17T08:12:13.627Z,97688.88
2023-05-17T08:15:27.500Z,97689.10
2023-05-17T08:18:35.703Z,97688.38
2023-05-17T08:21:42.862Z,97691.86
2023-05-17T08:24:50.025Z,97694.27
2023-05-17T08:27:59.332Z,97700.87
2023-05-17T08:31:06.607Z,97706.11
2023-05-17T08:34:53.393Z,97707.28
2023-05-17T08:38:03.390Z,97704.94
2023-05-17T08:41:14.482Z,97713.36
2023-05-17T08:44:39.277Z,97714.73
2023-05-17T08:47:46.347Z,97721.72
2023-05-17T08:50:53.559Z,97728.71
2023-05-17T08:54:40.823Z,97730.84
2023-05-17T08:57:49.674Z,97731.79
2023-05-17T09:00:56.641Z,97731.09
2023-05-17T09:04:23.787Z,97730.80
2023-05-17T09:07:51.559Z,97732.18
2023-05-17T09:10:58.592Z,97735.43
2023-05-17T09:14:22.118Z,97735.51
2023-05-17T09:17:29.226Z,97741.59
2023-05-17T09:20:39.526Z,97744.13
2023-05-17T09:24:08.871Z,97748.79
2023-05-17T09:30:51.467Z,97757.56
2023-05-17T09:34:03.884Z,97751.52
2023-05-17T09:37:10.998Z,97758.48
2023-05-17T09:40:18.094Z,97760.86
2023-05-17T09:43:25.212Z,97765.06
2023-05-17T09:46:56.706Z,97767.15
2023-05-17T09:50:03.642Z,97767.64
2023-05-17T09:53:10.533Z,97768.39
2023-05-17T09:56:34.532Z,97776.25
2023-05-17T09:59:41.862Z,97773.61
2023-05-17T10:02:48.814Z,97778.19
2023-05-17T10:06:32.646Z,97778.44
2023-05-17T10:09:44.142Z,97784.69
2023-05-17T10:12:51.501Z,97785.98
2023-05-17T10:15:58.494Z,97788.15
2023-05-17T10:19:25.395Z,97787.64
2023-05-17T10:22:32.430Z,97788.63
2023-05-17T10:25:44.623Z,97789.55
2023-05-17T10:29:07.827Z,97787.67
2023-05-17T10:32:36.168Z,97791.48
2023-05-17T10:35:46.859Z,97800.70
2023-05-17T10:39:08.390Z,97802.50
2023-05-17T10:42:15.627Z,97804.58
2023-05-17T10:45:42.372Z,97808.86
2023-05-17T10:48:52.193Z,97812.25
2023-05-17T10:52:01.172Z,97815.70
2023-05-17T10:55:21.004Z,97813.83
2023-05-17T10:58:37.183Z,97816.01
2023-05-17T11:02:13.403Z,97816.48
2023-05-17T11:05:20.945Z,97818.92
2023-05-17T11:08:31.421Z,97824.80
2023-05-17T11:11:38.467Z,97832.98
2023-05-17T11:15:13.552Z,97837.19
2023-05-17T11:18:30.796Z,97846.08
2023-05-17T11:21:43.701Z,97854.77
2023-05-17T11:24:52.900Z,97859.38
2023-05-17T11:28:10.000Z,97856.77
2023-05-17T11:31:26.889Z,97853.98
2023-05-17T11:34:40.402Z,97856.77
2023-05-17T11:37:51.012Z,97851.15
2023-05-17T11:44:49.703Z,97862.59
2023-05-17T11:47:58.500Z,97862.39
2023-05-17T11:51:25.375Z,97863.11
2023-05-17T11:54:52.388Z,97860.56
2023-05-17T11:58:19.304Z,97859.61
2023-05-17T12:01:47.568Z,97859.83
2023-05-17T12:04:58.594Z,97868.70
2023-05-17T12:08:26.702Z,97871.14
2023-05-17T12:11:53.485Z,97874.39
2023-05-17T12:15:00.657Z,97879.38
2023-05-17T12:18:33.752Z,97888.05
2023-05-17T12:21:40.907Z,97893.86
2023-05-17T12:24:49.654Z,97893.23
2023-05-17T12:28:02.687Z,97891.95
2023-05-17T12:31:14.767Z,97899.52
2023-05-17T12:34:21.776Z,97902.83
2023-05-17T12:37:28.794Z,97903.40
2023-05-17T12:40:35.845Z,97903.35
2023-05-17T12:43:43.875Z,97903.79
2023-05-17T12:46:50.992Z,97907.10
2023-05-17T12:49:59.906Z,97915.68
2023-05-17T12:53:07.456Z,97915.12
2023-05-17T12:56:18.895Z,97917.22
2023-05-17T12:59:30.368Z,97916.33
2023-05-17T13:02:43.603Z,97919.08
2023-05-17T13:06:29.250Z,97918.52
2023-05-17T13:09:36.178Z,97920.77
2023-05-17T13:12:47.628Z,97924.64
2023-05-17T13:15:54.665Z,97929.33
2023-05-17T13:19:08.146Z,97931.48
2023-05-17T13:22:38.134Z,97928.58
2023-05-17T13:25:45.205Z,97927.30
2023-05-17T13:29:00.871Z,97928.92
2023-05-17T13:32:08.109Z,97929.29
2023-05-17T13:35:54.890Z,97937.21
2023-05-17T13:39:04.548Z,97944.95
2023-05-17T13:42:21.439Z,97952.39
2023-05-17T13:46:11.602Z,97957.02
2023-05-17T13:49:18.609Z,97959.15
2023-05-17T13:52:45.624Z,97961.66
2023-05-17T13:55:57.956Z,97965.08
2023-05-17T13:59:05.063Z,97969.85
2023-05-17T14:02:14.498Z,97973.63
2023-05-17T14:05:23.682Z,97977.79
2023-05-17T14:08:37.456Z,97980.09
2023-05-17T14:11:44.941Z,97990.76
2023-05-17T14:14:51.987Z,97998.38
2023-05-17T14:18:19.963Z,98005.52
2023-05-17T14:21:27.345Z,98014.45
2023-05-17T14:24:35.646Z,98014.55
2023-05-17T14:27:44.333Z,98016.52
2023-05-17T14:31:13.234Z,98020.86
2023-05-17T14:34:50.940Z,98024.27
2023-05-17T14:38:14.080Z,98021.18
2023-05-17T14:41:21.225Z,98014.28
2023-05-17T14:44:35.172Z,98014.48
2023-05-17T14:47:42.610Z,98016.68
2023-05-17T14:50:49.965Z,98014.68
2023-05-17T14:54:00.587Z,98012.83
2023-05-17T14:57:08.896Z,98016.58
2023-05-17T15:03:53.274Z,98027.83
2023-05-17T15:07:00.477Z,98029.48
2023-05-17T15:10:07.649Z,98029.98
2023-05-17T15:13:14.927Z,98035.30
2023-05-17T15:16:22.737Z,98040.35
2023-05-17T15:19:29.885Z,98044.20
2023-05-17T15:22:42.135Z,98045.80
2023-05-17T15:26:14.264Z,98047.77
2023-05-17T15:29:28.624Z,98047.64
2023-05-17T15:32:30.021Z,98049.22
2023-05-17T15:35:37.115Z,98053.84
2023-05-17T15:38:44.195Z,98056.58
2023-05-17T15:41:51.415Z,98058.25
2023-05-17T15:44:58.517Z,98063.89
2023-05-17T15:48:05.554Z,98067.06
2023-05-17T15:51:12.552Z,98071.27
2023-05-17T15:54:21.590Z,98070.71
2023-05-17T15:57:28.703Z,98067.88
2023-05-17T16:00:35.751Z,98076.95
2023-05-17T16:03:44.705Z,98080.84
2023-05-17T16:06:52.087Z,98082.73
2023-05-17T16:09:48.916Z,98085.29
2023-05-17T16:12:49.667Z,98082.23
2023-05-17T16:15:56.970Z,98082.13
2023-05-17T16:19:07.127Z,98082.70
2023-05-17T16:21:56.622Z,98089.91
2023-05-17T16:25:03.499Z,98092.60
2023-05-17T16:28:12.405Z,98092.81
2023-05-17T16:31:19.938Z,98096.49
2023-05-17T16:34:27.296Z,98097.66
2023-05-17T16:37:43.602Z,98101.60
2023-05-17T16:40:54.577Z,98107.27
2023-05-17T16:44:02.561Z,98104.80
2023-05-17T16:47:27.363Z,98111.38
2023-05-17T16:50:34.456Z,98110.05
2023-05-17T16:53:43.448Z,98112.66
2023-05-17T16:56:56.565Z,98116.91
2023-05-17T17:00:09.606Z,98118.26
2023-05-17T17:03:22.613Z,98116.73
2023-05-17T17:05:53.520Z,98117.70
2023-05-17T17:09:00.590Z,98117.70
2023-05-17T17:12:20.170Z,98122.91
2023-05-17T17:15:30.984Z,98122.27
2023-05-17T17:18:40.029Z,98122.81
2023-05-17T17:22:00.073Z,98126.96
2023-05-17T17:25:18.135Z,98130.90
2023-05-17T17:28:20.180Z,98130.85
2023-05-17T17:31:27.319Z,98136.68
2023-05-17T17:34:55.032Z,98136.17
2023-05-17T17:38:03.310Z,98136.91
2023-05-17T17:41:10.453Z,98131.33
2023-05-17T17:44:17.607Z,98139.71
2023-05-17T17:47:24.733Z,98146.77
2023-05-17T17:50:32.058Z,98153.25
2023-05-17T17:53:39.065Z,98157.14
2023-05-17T17:56:48.191Z,98163.41
2023-05-17T17:59:54.910Z,98167.10
2023-05-17T18:03:02.040Z,98166.90
2023-05-17T18:06:09.276Z,98169.02
2023-05-17T18:09:23.297Z,98170.73
2023-05-17T18:15:52.264Z,98174.16
2023-05-17T18:18:59.592Z,98176.64
2023-05-17T18:22:07.039Z,98185.79
2023-05-17T18:26:02.223Z,98188.29
2023-05-17T18:28:44.639Z,98190.36
2023-05-17T18:33:13.530Z,98185.95
2023-05-17T18:35:44.877Z,98190.32
2023-05-17T18:38:52.423Z,98192.23
2023-05-17T18:42:00.719Z,98188.84
2023-05-17T18:45:31.023Z,98187.98
2023-05-17T18:48:46.828Z,98185.73
2023-05-17T18:55:45.949Z,98194.36
2023-05-17T18:58:56.889Z,98197.38
2023-05-17T19:02:11.050Z,98200.54
2023-05-17T19:05:19.688Z,98204.85
2023-05-17T19:08:30.447Z,98205.84
2023-05-17T19:12:24.360Z,98206.64
2023-05-17T19:15:06.168Z,98207.97
2023-05-17T19:18:37.765Z,98208.71
2023-05-17T19:21:45.036Z,98207.49
2023-05-17T19:24:52.493Z,98206.13
2023-05-17T19:27:59.724Z,98207.89
2023-05-17T19:31:30.101Z,98211.61
2023-05-17T19:34:37.427Z,98212.34
2023-05-17T19:37:44.918Z,98213.17
2023-05-17T19:40:58.977Z,98219.42
2023-05-17T19:47:57.619Z,98230.17
2023-05-17T19:51:06.817Z,98234.29
2023-05-17T19:55:30.680Z,98234.41
2023-05-17T19:57:41.892Z,98238.36
2023-05-17T20:00:48.808Z,98243.24
2023-05-17T20:03:55.989Z,98250.45
2023-05-17T20:07:26.544Z,98254.90
2023-05-17T20:10:33.506Z,98255.21
2023-05-17T20:14:03.781Z,98253.29
2023-05-17T20:17:33.314Z,98248.48
2023-05-17T20:20:40.779Z,98255.43
2023-05-17T20:23:47.724Z,98257.09
2023-05-17T20:27:16.603Z,98259.58
2023-05-17T20:30:23.905Z,98260.27
2023-05-17T20:34:10.965Z,98256.79
2023-05-17T20:37:26.548Z,98256.02
2023-05-17T20:40:42.335Z,98259.06
2023-05-17T20:44:09.388Z,98259.39
2023-05-17T20:47:56.278Z,98263.19
2023-05-17T20:51:23.470Z,98268.79
2023-05-17T20:54:34.848Z,98274.20
2023-05-17T20:57:45.223Z,98274.06
2023-05-17T21:01:12.499Z,98273.96
2023-05-17T21:04:19.773Z,98273.45
2023-05-17T21:07:49.973Z,98283.00
2023-05-17T21:10:57.473Z,98282.83
2023-05-17T21:14:05.560Z,98286.58
2023-05-17T21:17:12.568Z,98289.21
2023-05-17T21:20:39.208Z,98295.11
2023-05-17T21:24:15.492Z,98295.15
2023-05-17T21:27:27.655Z,98299.69
2023-05-17T21:30:53.939Z,98298.45
2023-05-17T21:34:00.879Z,98295.61
2023-05-17T21:37:08.004Z,98294.96
2023-05-17T21:40:14.983Z,98299.75
2023-05-17T21:43:25.905Z,98296.10
2023-05-17T21:46:38.916Z,98293.76
2023-05-17T21:49:50.239Z,98293.73
